Perla Del Mediterran — IJSM — position and weather

sailwx.info

Track history (hours):
 
Tides and Currents Weather Stations Pressure Air Temp Water Temp Dewpoint Dewpoint Depression Visibility Wind Speed Wind Dir Waves Ship Positions

Perla Del Mediterran

Last reported at 2018-May-25 08:11 UTC. Time now 2018-Jun-19 23:52 UTC.
Position N 36°51' E 014°15'.
Warning: this ship's position is 25 days out of date.

Length 16 m.

Type: Fishing. MMSI: 247304380.

Date/timePositionNaut miles runAvg speedWind from/ knotsBaromVisibWave heightAir tempDewpointWater temp
2018-May-25 08:11N 36°51' E 014°15'1 7.5
2018-May-25 08:00N 36°52' E 014°17'4 7.6
2018-May-25 07:30N 36°53' E 014°21'  
2018-May-22 09:16N 36°58' E 014°01'1 2.2
2018-May-22 09:00N 36°58' E 014°01'2 2.7
2018-May-22 08:19N 36°58' E 014°03'1 3.2
2018-May-22 07:56N 36°58' E 014°05'1 3.1
2018-May-22 07:28N 36°58' E 014°07'1 3.1
2018-May-22 07:00N 36°57' E 014°08'2 3.2
2018-May-22 06:30N 36°56' E 014°10'2 3.2
2018-May-22 06:00N 36°56' E 014°12'2 3.2
2018-May-22 05:31N 36°55' E 014°14'  
2018-May-16 13:03N 36°59' E 013°59'1 7.7
2018-May-16 12:59N 36°59' E 013°60'3 2.4
2018-May-16 11:42N 36°58' E 014°03'1 3.0
2018-May-16 11:16N 36°57' E 014°05'1 3.1
2018-May-16 10:59N 36°57' E 014°06'1 3.1
2018-May-16 10:30N 36°57' E 014°07'2 3.1
2018-May-16 10:00N 36°56' E 014°09'2 3.1
2018-May-16 09:30N 36°55' E 014°11'2 3.1
2018-May-16 09:00N 36°54' E 014°13'2 3.1
2018-May-16 08:28N 36°53' E 014°14'2 3.4
2018-May-16 08:00N 36°52' E 014°16'4 7.1
2018-May-16 07:29N 36°53' E 014°20'  
Track history (hours):
 
Tides and Currents Weather Stations Pressure Air Temp Water Temp Dewpoint Dewpoint Depression Visibility Wind Speed Wind Dir Waves Ship Positions

Perla Del Mediterran

Last reported at 2018-May-25 08:11 UTC. Time now 2018-Jun-19 23:52 UTC.
Position N 36°51' E 014°15'.
Warning: this ship's position is 25 days out of date.

Length 16 m.

Type: Fishing. MMSI: 247304380.

Date/timePositionNaut miles runAvg speedWind from/ knotsBaromVisibWave heightAir tempDewpointWater temp
2018-May-25 08:11N 36°51' E 014°15'1 7.5
2018-May-25 08:00N 36°52' E 014°17'4 7.6
2018-May-25 07:30N 36°53' E 014°21'  
2018-May-22 09:16N 36°58' E 014°01'1 2.2
2018-May-22 09:00N 36°58' E 014°01'2 2.7
2018-May-22 08:19N 36°58' E 014°03'1 3.2
2018-May-22 07:56N 36°58' E 014°05'1 3.1
2018-May-22 07:28N 36°58' E 014°07'1 3.1
2018-May-22 07:00N 36°57' E 014°08'2 3.2
2018-May-22 06:30N 36°56' E 014°10'2 3.2
2018-May-22 06:00N 36°56' E 014°12'2 3.2
2018-May-22 05:31N 36°55' E 014°14'  
2018-May-16 13:03N 36°59' E 013°59'1 7.7
2018-May-16 12:59N 36°59' E 013°60'3 2.4
2018-May-16 11:42N 36°58' E 014°03'1 3.0
2018-May-16 11:16N 36°57' E 014°05'1 3.1
2018-May-16 10:59N 36°57' E 014°06'1 3.1
2018-May-16 10:30N 36°57' E 014°07'2 3.1
2018-May-16 10:00N 36°56' E 014°09'2 3.1
2018-May-16 09:30N 36°55' E 014°11'2 3.1
2018-May-16 09:00N 36°54' E 014°13'2 3.1
2018-May-16 08:28N 36°53' E 014°14'2 3.4
2018-May-16 08:00N 36°52' E 014°16'4 7.1
2018-May-16 07:29N 36°53' E 014°20'  

Dump ship's entire track history